sensor_id;sensor_type;location;lat;lon;timestamp;pressure;altitude;pressure_sealevel;temperature;humidity
9853;BME280;4965;43.238;27.864;2022-08-19T00:01:23;99750.78;;;22.65;100.00
9853;BME280;4965;43.238;27.864;2022-08-19T00:03:51;99752.22;;;22.67;100.00
9853;BME280;4965;43.238;27.864;2022-08-19T00:06:17;99757.81;;;22.72;100.00
9853;BME280;4965;43.238;27.864;2022-08-19T00:08:44;99758.59;;;22.79;100.00
9853;BME280;4965;43.238;27.864;2022-08-19T00:11:13;99761.44;;;22.85;100.00
9853;BME280;4965;43.238;27.864;2022-08-19T00:13:40;99769.97;;;22.82;100.00
9853;BME280;4965;43.238;27.864;2022-08-19T00:16:07;99761.72;;;22.76;100.00
9853;BME280;4965;43.238;27.864;2022-08-19T00:18:34;99762.16;;;22.67;100.00
9853;BME280;4965;43.238;27.864;2022-08-19T00:21:01;99749.34;;;22.69;100.00
9853;BME280;4965;43.238;27.864;2022-08-19T00:23:28;99762.16;;;22.73;100.00
9853;BME280;4965;43.238;27.864;2022-08-19T00:25:55;99763.84;;;22.68;100.00
9853;BME280;4965;43.238;27.864;2022-08-19T00:28:24;99757.59;;;22.67;100.00
9853;BME280;4965;43.238;27.864;2022-08-19T00:30:51;99759.47;;;22.67;100.00
9853;BME280;4965;43.238;27.864;2022-08-19T00:33:18;99764.31;;;22.58;100.00
9853;BME280;4965;43.238;27.864;2022-08-19T00:35:45;99764.38;;;22.45;100.00
9853;BME280;4965;43.238;27.864;2022-08-19T00:38:12;99764.53;;;22.57;100.00
9853;BME280;4965;43.238;27.864;2022-08-19T00:40:39;99763.16;;;22.41;100.00
9853;BME280;4965;43.238;27.864;2022-08-19T00:43:09;99762.31;;;22.47;100.00
9853;BME280;4965;43.238;27.864;2022-08-19T00:45:38;99754.44;;;22.46;100.00
9853;BME280;4965;43.238;27.864;2022-08-19T00:48:07;99761.25;;;22.48;100.00
9853;BME280;4965;43.238;27.864;2022-08-19T00:50:34;99763.53;;;22.51;100.00
9853;BME280;4965;43.238;27.864;2022-08-19T00:53:02;99766.38;;;22.56;100.00
9853;BME280;4965;43.238;27.864;2022-08-19T00:55:32;99767.03;;;22.52;100.00
9853;BME280;4965;43.238;27.864;2022-08-19T00:58:02;99770.94;;;22.56;100.00
9853;BME280;4965;43.238;27.864;2022-08-19T01:00:30;99761.94;;;22.37;100.00
9853;BME280;4965;43.238;27.864;2022-08-19T01:02:59;99765.91;;;22.35;100.00
9853;BME280;4965;43.238;27.864;2022-08-19T01:05:27;99760.16;;;22.24;100.00
9853;BME280;4965;43.238;27.864;2022-08-19T01:07:57;99766.75;;;22.35;100.00
9853;BME280;4965;43.238;27.864;2022-08-19T01:10:28;99756.50;;;22.44;100.00
9853;BME280;4965;43.238;27.864;2022-08-19T01:12:58;99764.13;;;22.53;100.00
9853;BME280;4965;43.238;27.864;2022-08-19T01:15:30;99764.34;;;22.52;100.00
9853;BME280;4965;43.238;27.864;2022-08-19T01:18:00;99763.53;;;22.51;100.00
9853;BME280;4965;43.238;27.864;2022-08-19T01:20:28;99762.09;;;22.49;100.00
9853;BME280;4965;43.238;27.864;2022-08-19T01:22:58;99760.56;;;22.59;100.00
9853;BME280;4965;43.238;27.864;2022-08-19T01:25:41;99757.84;;;22.35;100.00
9853;BME280;4965;43.238;27.864;2022-08-19T01:28:15;99761.69;;;22.45;100.00
9853;BME280;4965;43.238;27.864;2022-08-19T01:30:43;99752.41;;;22.41;100.00
9853;BME280;4965;43.238;27.864;2022-08-19T01:33:11;99755.03;;;22.48;100.00
9853;BME280;4965;43.238;27.864;2022-08-19T01:35:38;99762.72;;;22.44;100.00
9853;BME280;4965;43.238;27.864;2022-08-19T01:38:09;99756.56;;;22.37;100.00
9853;BME280;4965;43.238;27.864;2022-08-19T01:40:39;99759.22;;;22.44;100.00
9853;BME280;4965;43.238;27.864;2022-08-19T01:43:07;99750.75;;;22.40;100.00
9853;BME280;4965;43.238;27.864;2022-08-19T01:45:35;99752.78;;;22.45;100.00
9853;BME280;4965;43.238;27.864;2022-08-19T01:48:03;99747.19;;;22.46;100.00
9853;BME280;4965;43.238;27.864;2022-08-19T01:50:32;99743.66;;;22.46;100.00
9853;BME280;4965;43.238;27.864;2022-08-19T01:53:01;99753.19;;;22.48;100.00
9853;BME280;4965;43.238;27.864;2022-08-19T01:55:30;99750.09;;;22.45;100.00
9853;BME280;4965;43.238;27.864;2022-08-19T01:57:59;99750.78;;;22.33;100.00
9853;BME280;4965;43.238;27.864;2022-08-19T02:00:29;99746.41;;;22.39;100.00
9853;BME280;4965;43.238;27.864;2022-08-19T02:02:56;99749.13;;;22.39;100.00
9853;BME280;4965;43.238;27.864;2022-08-19T02:05:24;99744.75;;;22.38;100.00
9853;BME280;4965;43.238;27.864;2022-08-19T02:07:51;99741.19;;;22.44;100.00
9853;BME280;4965;43.238;27.864;2022-08-19T02:10:20;99743.34;;;22.36;100.00
9853;BME280;4965;43.238;27.864;2022-08-19T02:12:49;99742.66;;;22.40;100.00
9853;BME280;4965;43.238;27.864;2022-08-19T02:15:17;99718.09;;;22.30;100.00
9853;BME280;4965;43.238;27.864;2022-08-19T02:17:44;99731.03;;;22.46;100.00
9853;BME280;4965;43.238;27.864;2022-08-19T02:20:11;99732.69;;;22.47;100.00
9853;BME280;4965;43.238;27.864;2022-08-19T02:22:38;99735.78;;;22.44;100.00
9853;BME280;4965;43.238;27.864;2022-08-19T02:25:07;99729.81;;;22.42;100.00
9853;BME280;4965;43.238;27.864;2022-08-19T02:27:35;99728.66;;;22.31;100.00
9853;BME280;4965;43.238;27.864;2022-08-19T02:30:05;99724.75;;;22.27;100.00
9853;BME280;4965;43.238;27.864;2022-08-19T02:32:33;99729.03;;;22.35;100.00
9853;BME280;4965;43.238;27.864;2022-08-19T02:35:00;99733.34;;;22.43;100.00
9853;BME280;4965;43.238;27.864;2022-08-19T02:37:26;99733.16;;;22.38;100.00
9853;BME280;4965;43.238;27.864;2022-08-19T02:40:11;99732.78;;;22.34;100.00
9853;BME280;4965;43.238;27.864;2022-08-19T02:42:38;99720.19;;;22.28;100.00
9853;BME280;4965;43.238;27.864;2022-08-19T02:45:09;99733.03;;;22.26;100.00
9853;BME280;4965;43.238;27.864;2022-08-19T02:47:36;99730.78;;;22.23;100.00
9853;BME280;4965;43.238;27.864;2022-08-19T02:50:04;99727.44;;;22.27;100.00
9853;BME280;4965;43.238;27.864;2022-08-19T02:52:32;99723.97;;;22.20;100.00
9853;BME280;4965;43.238;27.864;2022-08-19T02:54:59;99725.97;;;22.25;100.00
9853;BME280;4965;43.238;27.864;2022-08-19T02:57:27;99723.91;;;22.27;100.00
9853;BME280;4965;43.238;27.864;2022-08-19T02:59:54;99728.25;;;22.28;100.00
9853;BME280;4965;43.238;27.864;2022-08-19T03:02:22;99720.38;;;22.26;100.00
9853;BME280;4965;43.238;27.864;2022-08-19T03:04:49;99730.06;;;22.34;100.00
9853;BME280;4965;43.238;27.864;2022-08-19T03:07:17;99725.56;;;22.28;100.00
9853;BME280;4965;43.238;27.864;2022-08-19T03:09:44;99733.84;;;22.26;100.00
9853;BME280;4965;43.238;27.864;2022-08-19T03:12:11;99742.13;;;22.31;100.00
9853;BME280;4965;43.238;27.864;2022-08-19T03:14:38;99742.91;;;22.32;100.00
9853;BME280;4965;43.238;27.864;2022-08-19T03:17:06;99746.63;;;22.38;100.00
9853;BME280;4965;43.238;27.864;2022-08-19T03:19:34;99752.63;;;22.40;100.00
9853;BME280;4965;43.238;27.864;2022-08-19T03:22:01;99758.66;;;22.35;100.00
9853;BME280;4965;43.238;27.864;2022-08-19T03:24:30;99755.09;;;22.41;100.00
9853;BME280;4965;43.238;27.864;2022-08-19T03:26:57;99753.19;;;22.48;100.00
9853;BME280;4965;43.238;27.864;2022-08-19T03:29:26;99761.66;;;22.52;100.00
9853;BME280;4965;43.238;27.864;2022-08-19T03:31:53;99761.22;;;22.55;100.00
9853;BME280;4965;43.238;27.864;2022-08-19T03:34:22;99767.53;;;22.67;100.00
9853;BME280;4965;43.238;27.864;2022-08-19T03:36:53;99756.19;;;22.65;100.00
9853;BME280;4965;43.238;27.864;2022-08-19T03:39:22;99766.59;;;22.86;100.00
9853;BME280;4965;43.238;27.864;2022-08-19T03:41:51;99767.44;;;22.87;100.00
9853;BME280;4965;43.238;27.864;2022-08-19T03:44:20;99770.69;;;22.95;100.00
9853;BME280;4965;43.238;27.864;2022-08-19T03:46:50;99773.38;;;23.20;100.00
9853;BME280;4965;43.238;27.864;2022-08-19T03:49:19;99776.22;;;24.04;100.00
9853;BME280;4965;43.238;27.864;2022-08-19T03:51:48;99773.63;;;24.99;100.00
9853;BME280;4965;43.238;27.864;2022-08-19T03:54:19;99774.94;;;25.78;100.00
9853;BME280;4965;43.238;27.864;2022-08-19T03:56:49;99777.72;;;26.63;100.00
9853;BME280;4965;43.238;27.864;2022-08-19T03:59:20;99775.56;;;27.26;100.00
9853;BME280;4965;43.238;27.864;2022-08-19T04:01:47;99784.22;;;27.62;100.00
9853;BME280;4965;43.238;27.864;2022-08-19T04:04:14;99774.03;;;28.12;100.00
9853;BME280;4965;43.238;27.864;2022-08-19T04:06:43;99775.94;;;28.12;100.00
9853;BME280;4965;43.238;27.864;2022-08-19T04:09:13;99780.63;;;28.43;100.00
9853;BME280;4965;43.238;27.864;2022-08-19T04:11:43;99781.97;;;28.67;100.00
9853;BME280;4965;43.238;27.864;2022-08-19T04:14:12;99785.97;;;29.18;100.00
9853;BME280;4965;43.238;27.864;2022-08-19T04:16:39;99785.88;;;29.40;100.00
9853;BME280;4965;43.238;27.864;2022-08-19T04:19:07;99783.81;;;30.04;100.00
9853;BME280;4965;43.238;27.864;2022-08-19T04:21:34;99790.69;;;30.32;100.00
9853;BME280;4965;43.238;27.864;2022-08-19T04:24:01;99784.53;;;30.72;100.00
9853;BME280;4965;43.238;27.864;2022-08-19T04:26:31;99795.72;;;30.60;100.00
9853;BME280;4965;43.238;27.864;2022-08-19T04:29:00;99789.19;;;31.37;100.00
9853;BME280;4965;43.238;27.864;2022-08-19T04:31:29;99787.28;;;32.32;100.00
9853;BME280;4965;43.238;27.864;2022-08-19T04:33:59;99788.88;;;31.74;100.00
9853;BME280;4965;43.238;27.864;2022-08-19T04:36:28;99796.47;;;31.87;100.00
9853;BME280;4965;43.238;27.864;2022-08-19T04:38:57;99801.97;;;31.72;100.00
9853;BME280;4965;43.238;27.864;2022-08-19T04:41:25;99797.41;;;32.32;97.94
9853;BME280;4965;43.238;27.864;2022-08-19T04:44:11;99807.59;;;32.16;97.86
9853;BME280;4965;43.238;27.864;2022-08-19T04:46:38;99809.88;;;32.48;96.85
9853;BME280;4965;43.238;27.864;2022-08-19T04:49:06;99765.41;;;32.71;94.06
9853;BME280;4965;43.238;27.864;2022-08-19T04:51:34;99805.56;;;32.86;95.43
9853;BME280;4965;43.238;27.864;2022-08-19T04:54:03;99757.41;;;33.42;90.01
9853;BME280;4965;43.238;27.864;2022-08-19T04:56:30;99803.94;;;33.47;89.46
9853;BME280;4965;43.238;27.864;2022-08-19T04:58:59;99793.66;;;33.00;91.26
9853;BME280;4965;43.238;27.864;2022-08-19T05:01:31;99814.09;;;34.23;85.79
9853;BME280;4965;43.238;27.864;2022-08-19T05:04:00;99820.38;;;34.66;82.87
9853;BME280;4965;43.238;27.864;2022-08-19T05:06:28;99811.97;;;33.91;83.71
9853;BME280;4965;43.238;27.864;2022-08-19T05:08:59;99811.19;;;33.67;85.26
9853;BME280;4965;43.238;27.864;2022-08-19T05:11:29;99810.63;;;33.02;88.90
9853;BME280;4965;43.238;27.864;2022-08-19T05:13:57;99815.53;;;33.68;85.77
9853;BME280;4965;43.238;27.864;2022-08-19T05:16:25;99814.38;;;32.78;90.32
9853;BME280;4965;43.238;27.864;2022-08-19T05:18:55;99820.25;;;32.95;88.95
9853;BME280;4965;43.238;27.864;2022-08-19T05:21:40;99801.53;;;33.70;84.12
9853;BME280;4965;43.238;27.864;2022-08-19T05:24:25;99786.63;;;32.50;91.31
9853;BME280;4965;43.238;27.864;2022-08-19T05:26:54;99815.50;;;33.73;86.17
9853;BME280;4965;43.238;27.864;2022-08-19T05:29:24;99805.75;;;33.57;86.50
9853;BME280;4965;43.238;27.864;2022-08-19T05:31:52;99805.38;;;33.92;85.14
9853;BME280;4965;43.238;27.864;2022-08-19T05:34:23;99800.31;;;34.28;80.03
9853;BME280;4965;43.238;27.864;2022-08-19T05:36:52;99757.41;;;33.71;82.96
9853;BME280;4965;43.238;27.864;2022-08-19T05:39:21;99768.09;;;33.91;81.88
9853;BME280;4965;43.238;27.864;2022-08-19T05:41:51;99794.75;;;34.52;81.99
9853;BME280;4965;43.238;27.864;2022-08-19T05:44:19;99798.72;;;33.98;81.29
9853;BME280;4965;43.238;27.864;2022-08-19T05:46:47;99798.16;;;34.44;81.51
9853;BME280;4965;43.238;27.864;2022-08-19T05:49:15;99784.53;;;33.44;82.67
9853;BME280;4965;43.238;27.864;2022-08-19T05:51:44;99790.06;;;33.05;85.86
9853;BME280;4965;43.238;27.864;2022-08-19T05:54:11;99791.53;;;32.53;90.00
9853;BME280;4965;43.238;27.864;2022-08-19T05:56:40;99789.69;;;32.44;91.56
9853;BME280;4965;43.238;27.864;2022-08-19T05:59:09;99773.97;;;32.16;92.26
9853;BME280;4965;43.238;27.864;2022-08-19T06:01:38;99785.00;;;31.80;96.41
9853;BME280;4965;43.238;27.864;2022-08-19T06:04:06;99787.84;;;31.09;100.00
9853;BME280;4965;43.238;27.864;2022-08-19T06:06:34;99788.13;;;30.93;100.00
9853;BME280;4965;43.238;27.864;2022-08-19T06:09:03;99788.13;;;31.23;100.00
9853;BME280;4965;43.238;27.864;2022-08-19T06:11:36;99792.41;;;31.80;99.27
9853;BME280;4965;43.238;27.864;2022-08-19T06:14:05;99797.03;;;31.89;98.97
9853;BME280;4965;43.238;27.864;2022-08-19T06:16:34;99796.50;;;31.77;99.28
9853;BME280;4965;43.238;27.864;2022-08-19T06:19:06;99790.53;;;31.40;100.00
9853;BME280;4965;43.238;27.864;2022-08-19T06:21:35;99787.00;;;31.29;100.00
9853;BME280;4965;43.238;27.864;2022-08-19T06:24:06;99780.19;;;31.16;100.00
9853;BME280;4965;43.238;27.864;2022-08-19T06:26:35;99779.34;;;30.70;100.00
9853;BME280;4965;43.238;27.864;2022-08-19T06:29:03;99781.81;;;30.87;100.00
9853;BME280;4965;43.238;27.864;2022-08-19T06:31:32;99765.72;;;30.91;100.00
9853;BME280;4965;43.238;27.864;2022-08-19T06:34:00;99765.16;;;30.79;100.00
9853;BME280;4965;43.238;27.864;2022-08-19T06:36:32;99782.09;;;30.96;100.00
9853;BME280;4965;43.238;27.864;2022-08-19T06:39:00;99781.28;;;31.05;100.00
9853;BME280;4965;43.238;27.864;2022-08-19T06:41:29;99781.28;;;31.20;100.00
9853;BME280;4965;43.238;27.864;2022-08-19T06:43:56;99786.16;;;31.69;100.00
9853;BME280;4965;43.238;27.864;2022-08-19T06:46:24;99773.25;;;31.75;100.00
9853;BME280;4965;43.238;27.864;2022-08-19T06:48:52;99778.72;;;31.80;100.00
9853;BME280;4965;43.238;27.864;2022-08-19T06:51:20;99782.78;;;31.92;100.00
9853;BME280;4965;43.238;27.864;2022-08-19T06:53:50;99780.63;;;31.89;100.00
9853;BME280;4965;43.238;27.864;2022-08-19T06:56:19;99778.25;;;32.32;99.00
9853;BME280;4965;43.238;27.864;2022-08-19T06:58:48;99777.31;;;31.92;99.76
9853;BME280;4965;43.238;27.864;2022-08-19T07:01:19;99789.34;;;31.96;100.00
9853;BME280;4965;43.238;27.864;2022-08-19T07:03:46;99783.31;;;31.94;99.39
9853;BME280;4965;43.238;27.864;2022-08-19T07:06:15;99793.09;;;32.16;98.66
9853;BME280;4965;43.238;27.864;2022-08-19T07:08:43;99792.53;;;32.24;98.54
9853;BME280;4965;43.238;27.864;2022-08-19T07:11:15;99784.75;;;31.82;100.00
9853;BME280;4965;43.238;27.864;2022-08-19T07:13:44;99787.50;;;31.77;98.98
9853;BME280;4965;43.238;27.864;2022-08-19T07:16:16;99773.44;;;32.08;99.91
9853;BME280;4965;43.238;27.864;2022-08-19T07:18:45;99778.81;;;31.54;100.00
9853;BME280;4965;43.238;27.864;2022-08-19T07:21:14;99773.66;;;32.22;99.06
9853;BME280;4965;43.238;27.864;2022-08-19T07:23:42;99774.47;;;32.18;97.10
9853;BME280;4965;43.238;27.864;2022-08-19T07:26:15;99779.22;;;31.92;99.18
9853;BME280;4965;43.238;27.864;2022-08-19T07:28:44;99772.28;;;32.20;99.18
9853;BME280;4965;43.238;27.864;2022-08-19T07:31:14;99770.72;;;32.08;97.75
9853;BME280;4965;43.238;27.864;2022-08-19T07:33:42;99749.59;;;32.19;97.46
9853;BME280;4965;43.238;27.864;2022-08-19T07:36:12;99774.00;;;32.00;96.79
9853;BME280;4965;43.238;27.864;2022-08-19T07:38:41;99763.28;;;32.19;94.68
9853;BME280;4965;43.238;27.864;2022-08-19T07:41:10;99787.22;;;32.37;94.11
9853;BME280;4965;43.238;27.864;2022-08-19T07:43:38;99783.84;;;32.01;95.51
9853;BME280;4965;43.238;27.864;2022-08-19T07:46:06;99778.47;;;31.81;99.70
9853;BME280;4965;43.238;27.864;2022-08-19T07:48:34;99781.75;;;31.68;99.08
9853;BME280;4965;43.238;27.864;2022-08-19T07:51:04;99762.69;;;31.58;99.70
9853;BME280;4965;43.238;27.864;2022-08-19T07:53:32;99772.22;;;31.65;100.00
9853;BME280;4965;43.238;27.864;2022-08-19T07:56:01;99770.16;;;32.11;98.20
9853;BME280;4965;43.238;27.864;2022-08-19T07:58:31;99750.59;;;31.74;98.24
9853;BME280;4965;43.238;27.864;2022-08-19T08:00:59;99771.41;;;31.60;97.98
9853;BME280;4965;43.238;27.864;2022-08-19T08:03:27;99778.34;;;32.11;94.07
9853;BME280;4965;43.238;27.864;2022-08-19T08:06:09;99768.66;;;32.29;93.34
9853;BME280;4965;43.238;27.864;2022-08-19T08:08:54;99781.84;;;32.71;89.46
9853;BME280;4965;43.238;27.864;2022-08-19T08:11:45;99766.16;;;32.43;88.45
9853;BME280;4965;43.238;27.864;2022-08-19T08:14:15;99760.34;;;32.00;91.71
9853;BME280;4965;43.238;27.864;2022-08-19T08:16:42;99775.66;;;31.96;92.67
9853;BME280;4965;43.238;27.864;2022-08-19T08:19:11;99757.47;;;31.67;95.73
9853;BME280;4965;43.238;27.864;2022-08-19T08:21:41;99748.66;;;31.80;95.74
9853;BME280;4965;43.238;27.864;2022-08-19T08:24:09;99746.81;;;31.45;92.41
9853;BME280;4965;43.238;27.864;2022-08-19T08:26:38;99752.03;;;31.41;95.56
9853;BME280;4965;43.238;27.864;2022-08-19T08:29:05;99753.34;;;31.64;94.24
9853;BME280;4965;43.238;27.864;2022-08-19T08:31:33;99752.41;;;31.94;87.96
9853;BME280;4965;43.238;27.864;2022-08-19T08:34:00;99743.50;;;31.73;91.42
9853;BME280;4965;43.238;27.864;2022-08-19T08:36:27;99753.63;;;31.67;92.94
9853;BME280;4965;43.238;27.864;2022-08-19T08:38:56;99754.78;;;32.21;88.98
9853;BME280;4965;43.238;27.864;2022-08-19T08:41:30;99741.47;;;32.09;89.83
9853;BME280;4965;43.238;27.864;2022-08-19T08:44:00;99764.72;;;31.96;89.29
9853;BME280;4965;43.238;27.864;2022-08-19T08:46:33;99772.19;;;31.71;89.74
9853;BME280;4965;43.238;27.864;2022-08-19T08:49:06;99748.66;;;31.85;91.24
9853;BME280;4965;43.238;27.864;2022-08-19T08:51:42;99755.13;;;32.04;92.61
9853;BME280;4965;43.238;27.864;2022-08-19T08:54:14;99735.84;;;32.29;90.04
9853;BME280;4965;43.238;27.864;2022-08-19T08:56:45;99739.28;;;32.50;89.36
9853;BME280;4965;43.238;27.864;2022-08-19T08:59:20;99741.03;;;32.36;85.92
9853;BME280;4965;43.238;27.864;2022-08-19T09:01:48;99742.25;;;32.04;88.66
9853;BME280;4965;43.238;27.864;2022-08-19T09:04:15;99754.31;;;31.98;88.50
9853;BME280;4965;43.238;27.864;2022-08-19T09:06:50;99756.53;;;31.86;86.82
9853;BME280;4965;43.238;27.864;2022-08-19T09:09:24;99744.44;;;32.02;88.31
9853;BME280;4965;43.238;27.864;2022-08-19T09:12:03;99758.66;;;32.09;89.50
9853;BME280;4965;43.238;27.864;2022-08-19T09:14:36;99766.72;;;31.76;89.27
9853;BME280;4965;43.238;27.864;2022-08-19T09:17:07;99769.53;;;31.25;90.07
9853;BME280;4965;43.238;27.864;2022-08-19T09:19:35;99743.31;;;31.29;92.60
9853;BME280;4965;43.238;27.864;2022-08-19T09:22:02;99751.88;;;31.92;89.45
9853;BME280;4965;43.238;27.864;2022-08-19T09:24:32;99758.75;;;31.89;87.61
9853;BME280;4965;43.238;27.864;2022-08-19T09:27:01;99756.09;;;31.64;89.78
9853;BME280;4965;43.238;27.864;2022-08-19T09:29:28;99759.09;;;32.32;85.12
9853;BME280;4965;43.238;27.864;2022-08-19T09:31:55;99762.38;;;32.29;83.58
9853;BME280;4965;43.238;27.864;2022-08-19T09:34:22;99751.16;;;32.30;80.52
9853;BME280;4965;43.238;27.864;2022-08-19T09:36:50;99763.19;;;32.78;79.43
9853;BME280;4965;43.238;27.864;2022-08-19T09:39:18;99766.75;;;33.08;78.36
9853;BME280;4965;43.238;27.864;2022-08-19T09:41:47;99779.06;;;33.10;77.94
9853;BME280;4965;43.238;27.864;2022-08-19T09:44:15;99772.75;;;32.81;76.14
9853;BME280;4965;43.238;27.864;2022-08-19T09:46:42;99773.25;;;32.83;75.69
9853;BME280;4965;43.238;27.864;2022-08-19T09:49:09;99750.50;;;32.87;76.49
9853;BME280;4965;43.238;27.864;2022-08-19T09:51:35;99754.63;;;32.85;79.04
9853;BME280;4965;43.238;27.864;2022-08-19T09:54:03;99759.81;;;32.47;77.55
9853;BME280;4965;43.238;27.864;2022-08-19T09:56:31;99766.09;;;32.87;72.99
9853;BME280;4965;43.238;27.864;2022-08-19T09:59:02;99765.25;;;32.91;72.49
9853;BME280;4965;43.238;27.864;2022-08-19T10:01:30;99763.03;;;33.27;72.25
9853;BME280;4965;43.238;27.864;2022-08-19T10:03:59;99737.97;;;32.81;79.05
9853;BME280;4965;43.238;27.864;2022-08-19T10:06:29;99770.56;;;33.12;75.59
9853;BME280;4965;43.238;27.864;2022-08-19T10:08:58;99762.00;;;32.45;77.71
9853;BME280;4965;43.238;27.864;2022-08-19T10:11:25;99763.34;;;32.92;75.23
9853;BME280;4965;43.238;27.864;2022-08-19T10:13:53;99774.44;;;33.39;71.10
9853;BME280;4965;43.238;27.864;2022-08-19T10:16:23;99769.06;;;33.53;70.91
9853;BME280;4965;43.238;27.864;2022-08-19T10:18:51;99759.34;;;33.89;69.97
9853;BME280;4965;43.238;27.864;2022-08-19T10:21:21;99779.28;;;33.47;70.95
9853;BME280;4965;43.238;27.864;2022-08-19T10:23:51;99772.81;;;32.71;75.49
9853;BME280;4965;43.238;27.864;2022-08-19T10:26:20;99762.38;;;33.06;74.97
9853;BME280;4965;43.238;27.864;2022-08-19T10:28:47;99775.16;;;33.21;73.30
9853;BME280;4965;43.238;27.864;2022-08-19T10:31:16;99762.38;;;33.88;69.21
9853;BME280;4965;43.238;27.864;2022-08-19T10:33:46;99763.66;;;33.72;67.83
9853;BME280;4965;43.238;27.864;2022-08-19T10:36:16;99767.34;;;34.10;65.71
9853;BME280;4965;43.238;27.864;2022-08-19T10:38:44;99773.53;;;33.73;68.36
9853;BME280;4965;43.238;27.864;2022-08-19T10:41:13;99766.72;;;33.70;68.86
9853;BME280;4965;43.238;27.864;2022-08-19T10:43:41;99777.00;;;33.55;66.70
9853;BME280;4965;43.238;27.864;2022-08-19T10:46:09;99776.63;;;33.66;63.77
9853;BME280;4965;43.238;27.864;2022-08-19T10:48:37;99765.88;;;33.93;64.05
9853;BME280;4965;43.238;27.864;2022-08-19T10:51:08;99761.44;;;34.40;62.25
9853;BME280;4965;43.238;27.864;2022-08-19T10:53:52;99771.38;;;34.55;61.89
9853;BME280;4965;43.238;27.864;2022-08-19T10:56:20;99742.78;;;33.76;64.26
9853;BME280;4965;43.238;27.864;2022-08-19T10:59:21;99763.06;;;34.22;65.44
9853;BME280;4965;43.238;27.864;2022-08-19T11:01:50;99740.31;;;33.50;67.39
9853;BME280;4965;43.238;27.864;2022-08-19T11:04:18;99787.34;;;33.63;68.12
9853;BME280;4965;43.238;27.864;2022-08-19T11:06:49;99749.41;;;32.88;70.02
9853;BME280;4965;43.238;27.864;2022-08-19T11:09:20;99774.31;;;32.48;69.91
9853;BME280;4965;43.238;27.864;2022-08-19T11:11:50;99773.72;;;32.95;68.55
9853;BME280;4965;43.238;27.864;2022-08-19T11:14:21;99766.88;;;33.55;65.87
9853;BME280;4965;43.238;27.864;2022-08-19T11:16:52;99755.09;;;33.26;65.74
9853;BME280;4965;43.238;27.864;2022-08-19T11:19:22;99761.47;;;33.45;65.29
9853;BME280;4965;43.238;27.864;2022-08-19T11:21:51;99751.00;;;33.76;63.63
9853;BME280;4965;43.238;27.864;2022-08-19T11:24:23;99758.09;;;33.82;63.67
9853;BME280;4965;43.238;27.864;2022-08-19T11:26:53;99764.94;;;34.03;60.06
9853;BME280;4965;43.238;27.864;2022-08-19T11:29:22;99761.63;;;33.01;64.94
9853;BME280;4965;43.238;27.864;2022-08-19T11:31:53;99764.13;;;33.26;64.10
9853;BME280;4965;43.238;27.864;2022-08-19T11:34:25;99760.47;;;33.88;61.86
9853;BME280;4965;43.238;27.864;2022-08-19T11:36:55;99770.34;;;34.32;58.32
9853;BME280;4965;43.238;27.864;2022-08-19T11:39:26;99762.50;;;34.02;97.73
9853;BME280;4965;43.238;27.864;2022-08-19T11:41:53;99766.16;;;33.16;100.00
9853;BME280;4965;43.238;27.864;2022-08-19T11:44:20;99756.53;;;31.91;100.00
9853;BME280;4965;43.238;27.864;2022-08-19T11:46:47;99759.59;;;31.80;100.00
9853;BME280;4965;43.238;27.864;2022-08-19T11:49:15;99743.03;;;32.20;100.00
9853;BME280;4965;43.238;27.864;2022-08-19T11:51:44;99762.41;;;31.54;100.00
9853;BME280;4965;43.238;27.864;2022-08-19T11:54:14;99754.97;;;30.34;100.00
9853;BME280;4965;43.238;27.864;2022-08-19T11:56:43;99753.41;;;30.48;100.00
9853;BME280;4965;43.238;27.864;2022-08-19T11:59:12;99743.31;;;30.48;100.00
9853;BME280;4965;43.238;27.864;2022-08-19T12:01:39;99739.53;;;30.69;100.00
9853;BME280;4965;43.238;27.864;2022-08-19T12:04:07;99744.34;;;30.32;100.00
9853;BME280;4965;43.238;27.864;2022-08-19T12:06:39;99753.78;;;29.94;100.00
9853;BME280;4965;43.238;27.864;2022-08-19T12:09:08;99748.56;;;29.88;100.00
9853;BME280;4965;43.238;27.864;2022-08-19T12:11:38;99748.69;;;29.61;100.00
9853;BME280;4965;43.238;27.864;2022-08-19T12:14:06;99747.34;;;29.63;100.00
9853;BME280;4965;43.238;27.864;2022-08-19T12:16:35;99749.25;;;29.63;100.00
9853;BME280;4965;43.238;27.864;2022-08-19T12:19:04;99744.59;;;29.58;100.00
9853;BME280;4965;43.238;27.864;2022-08-19T12:21:33;99746.97;;;29.45;100.00
9853;BME280;4965;43.238;27.864;2022-08-19T12:24:01;99745.88;;;29.04;100.00
9853;BME280;4965;43.238;27.864;2022-08-19T12:26:29;99743.41;;;29.02;100.00
9853;BME280;4965;43.238;27.864;2022-08-19T12:29:00;99766.84;;;29.08;100.00
9853;BME280;4965;43.238;27.864;2022-08-19T12:31:28;99756.53;;;29.10;100.00
9853;BME280;4965;43.238;27.864;2022-08-19T12:33:56;99756.59;;;29.20;100.00
9853;BME280;4965;43.238;27.864;2022-08-19T12:36:24;99747.09;;;29.65;100.00
9853;BME280;4965;43.238;27.864;2022-08-19T12:38:51;99750.28;;;29.52;100.00
9853;BME280;4965;43.238;27.864;2022-08-19T12:41:20;99763.34;;;29.50;100.00
9853;BME280;4965;43.238;27.864;2022-08-19T12:43:47;99762.06;;;29.25;100.00
9853;BME280;4965;43.238;27.864;2022-08-19T12:46:16;99770.13;;;29.47;100.00
9853;BME280;4965;43.238;27.864;2022-08-19T12:48:44;99771.84;;;29.63;100.00
9853;BME280;4965;43.238;27.864;2022-08-19T12:51:14;99763.31;;;28.76;100.00
9853;BME280;4965;43.238;27.864;2022-08-19T12:53:42;99758.06;;;28.69;100.00
9853;BME280;4965;43.238;27.864;2022-08-19T12:56:10;99772.28;;;28.50;100.00
9853;BME280;4965;43.238;27.864;2022-08-19T12:58:40;99761.31;;;28.39;100.00
9853;BME280;4965;43.238;27.864;2022-08-19T13:01:09;99766.03;;;28.22;100.00
9853;BME280;4965;43.238;27.864;2022-08-19T13:03:38;99761.03;;;28.68;100.00
9853;BME280;4965;43.238;27.864;2022-08-19T13:06:06;99766.72;;;28.93;100.00
9853;BME280;4965;43.238;27.864;2022-08-19T13:08:33;99764.78;;;28.62;100.00
9853;BME280;4965;43.238;27.864;2022-08-19T13:11:08;99782.59;;;28.48;100.00
9853;BME280;4965;43.238;27.864;2022-08-19T13:13:37;99771.59;;;28.11;100.00
9853;BME280;4965;43.238;27.864;2022-08-19T13:16:08;99778.34;;;28.30;100.00